createdAt,value
2022-10-23T00:03:50.660Z,100180.95
2022-10-23T00:10:39.539Z,100186.09
2022-10-23T00:17:10.375Z,100186.27
2022-10-23T00:23:36.459Z,100187.15
2022-10-23T00:30:00.895Z,100192.34
2022-10-23T00:36:24.381Z,100198.54
2022-10-23T00:42:47.365Z,100201.35
2022-10-23T00:49:19.101Z,100203.35
2022-10-23T00:56:00.510Z,100209.11
2022-10-23T01:02:30.434Z,100218.88
2022-10-23T01:09:11.571Z,100226.23
2022-10-23T01:23:00.357Z,100238.91
2022-10-23T01:29:38.882Z,100239.88
2022-10-23T01:36:04.589Z,100245.23
2022-10-23T01:42:40.360Z,100250.23
2022-10-23T01:49:10.771Z,100253.40
2022-10-23T01:55:35.700Z,100253.97
2022-10-23T02:01:52.580Z,100254.78
2022-10-23T02:08:04.625Z,100256.00
2022-10-23T02:14:24.499Z,100260.58
2022-10-23T02:20:39.764Z,100259.67
2022-10-23T02:27:13.845Z,100270.98
2022-10-23T02:33:16.628Z,100278.20
2022-10-23T02:39:46.494Z,100282.30
2022-10-23T02:46:33.784Z,100290.42
2022-10-23T02:53:20.329Z,100294.33
2022-10-23T02:59:47.374Z,100301.19
2022-10-23T03:06:22.062Z,100304.25
2022-10-23T03:12:48.337Z,100302.19
2022-10-23T03:25:57.542Z,100294.83
2022-10-23T03:32:26.785Z,100292.48
2022-10-23T03:52:00.580Z,100295.02
2022-10-23T03:58:25.119Z,100302.56
2022-10-23T04:11:38.420Z,100316.73
2022-10-23T04:17:47.490Z,100331.86
2022-10-23T04:30:47.890Z,100337.83
2022-10-23T04:36:56.591Z,100334.12
2022-10-23T04:43:26.016Z,100340.99
2022-10-23T04:50:13.401Z,100353.98
2022-10-23T04:56:37.044Z,100362.26
2022-10-23T05:03:02.876Z,100372.71
2022-10-23T05:09:31.280Z,100374.14
2022-10-23T05:16:12.498Z,100380.04
2022-10-23T05:22:31.591Z,100392.45
2022-10-23T05:28:48.457Z,100400.98
2022-10-23T05:35:13.929Z,100395.41
2022-10-23T05:41:20.648Z,100394.56
2022-10-23T05:47:50.723Z,100403.80
2022-10-23T05:54:11.549Z,100410.65
2022-10-23T06:00:40.739Z,100419.91
2022-10-23T06:07:05.131Z,100415.24
2022-10-23T06:13:36.069Z,100412.90
2022-10-23T06:26:42.256Z,100418.87
2022-10-23T06:32:52.571Z,100418.32
2022-10-23T06:39:26.133Z,100427.62
2022-10-23T06:45:49.379Z,100433.20
2022-10-23T06:52:14.441Z,100438.73
2022-10-23T06:59:05.680Z,100442.23
2022-10-23T07:05:29.898Z,100443.46
2022-10-23T07:11:57.399Z,100451.66
2022-10-23T07:18:17.033Z,100454.24
2022-10-23T07:24:40.529Z,100449.60
2022-10-23T07:31:00.174Z,100458.38
2022-10-23T07:37:36.971Z,100463.64
2022-10-23T07:44:03.455Z,100464.53
2022-10-23T07:50:35.427Z,100467.34
2022-10-23T07:57:00.269Z,100460.11
2022-10-23T08:03:24.386Z,100461.11
2022-10-23T08:09:56.599Z,100462.02
2022-10-23T08:16:26.721Z,100457.23
2022-10-23T08:22:58.647Z,100449.79
2022-10-23T08:29:24.991Z,100453.56
2022-10-23T08:35:49.178Z,100462.61
2022-10-23T08:42:21.316Z,100465.92
2022-10-23T08:48:44.728Z,100470.65
2022-10-23T08:55:22.064Z,100470.92
2022-10-23T09:02:02.255Z,100471.38
2022-10-23T09:08:41.219Z,100473.88
2022-10-23T09:15:22.580Z,100476.49
2022-10-23T09:21:47.111Z,100484.86
2022-10-23T09:28:20.658Z,100480.83
2022-10-23T09:34:45.196Z,100481.58
2022-10-23T09:41:13.873Z,100487.11
2022-10-23T09:47:41.534Z,100485.99
2022-10-23T09:53:49.272Z,100489.35
2022-10-23T10:00:13.622Z,100486.40
2022-10-23T10:06:39.018Z,100489.67
2022-10-23T10:13:25.283Z,100486.98
2022-10-23T10:20:05.240Z,100484.63
2022-10-23T10:26:37.893Z,100484.48
2022-10-23T10:33:05.914Z,100483.05
2022-10-23T10:39:35.279Z,100473.95
2022-10-23T10:46:31.973Z,100470.63
2022-10-23T10:53:01.776Z,100470.70
2022-10-23T10:59:27.954Z,100464.80
2022-10-23T11:05:54.842Z,100465.15
2022-10-23T11:12:03.599Z,100459.61
2022-10-23T11:18:43.910Z,100452.46
2022-10-23T11:25:04.892Z,100444.34
2022-10-23T11:31:12.158Z,100446.84
2022-10-23T11:37:32.615Z,100439.19
2022-10-23T11:44:09.634Z,100433.20
2022-10-23T11:57:34.059Z,100424.23
2022-10-23T12:04:03.585Z,100430.65
2022-10-23T12:10:46.791Z,100423.60
2022-10-23T12:30:24.303Z,100401.64
2022-10-23T12:36:38.276Z,100395.98
2022-10-23T12:43:16.149Z,100397.27
2022-10-23T12:50:04.685Z,100394.23
2022-10-23T12:56:37.743Z,100393.86
2022-10-23T13:02:57.677Z,100396.50
2022-10-23T13:09:27.930Z,100394.80
2022-10-23T13:16:05.511Z,100396.31
2022-10-23T13:36:06.123Z,100399.15
2022-10-23T13:42:29.529Z,100395.69
2022-10-23T13:48:49.259Z,100396.86
2022-10-23T13:54:56.387Z,100396.16
2022-10-23T14:01:16.650Z,100395.27
2022-10-23T14:07:37.967Z,100399.42
2022-10-23T14:13:43.242Z,100393.41
2022-10-23T14:20:17.283Z,100382.54
2022-10-23T14:26:44.839Z,100375.88
2022-10-23T14:33:02.087Z,100390.23
2022-10-23T14:39:38.079Z,100395.75
2022-10-23T14:46:00.083Z,100396.39
2022-10-23T14:52:25.338Z,100399.24
2022-10-23T14:58:43.244Z,100396.52
2022-10-23T15:05:08.527Z,100385.77
2022-10-23T15:11:26.161Z,100386.48
2022-10-23T15:17:54.596Z,100381.73
2022-10-23T15:24:18.447Z,100381.96
2022-10-23T15:30:43.602Z,100389.21
2022-10-23T15:37:10.381Z,100392.02
2022-10-23T15:43:23.491Z,100388.54
2022-10-23T15:49:57.030Z,100391.52
2022-10-23T15:56:15.919Z,100393.17
2022-10-23T16:02:45.073Z,100395.76
2022-10-23T16:09:11.704Z,100397.23
2022-10-23T16:15:52.818Z,100397.36
2022-10-23T16:28:40.081Z,100394.02
2022-10-23T16:34:41.733Z,100402.55
2022-10-23T16:40:48.818Z,100412.52
2022-10-23T16:47:24.401Z,100425.30
2022-10-23T17:00:29.846Z,100435.27
2022-10-23T17:06:25.852Z,100437.76
2022-10-23T17:12:24.641Z,100445.98
2022-10-23T17:18:43.845Z,100443.83
2022-10-23T17:31:33.857Z,100443.67
2022-10-23T17:37:42.756Z,100444.68
2022-10-23T17:43:40.923Z,100446.59
2022-10-23T17:50:03.712Z,100446.55
2022-10-23T17:56:29.094Z,100441.96
2022-10-23T18:02:49.814Z,100446.92
2022-10-23T18:08:58.741Z,100445.20
2022-10-23T18:15:07.575Z,100439.36
2022-10-23T18:21:33.311Z,100436.11
2022-10-23T18:34:46.055Z,100433.48
2022-10-23T18:41:21.551Z,100435.61
2022-10-23T18:54:44.076Z,100444.07
2022-10-23T19:01:02.077Z,100444.50
2022-10-23T19:07:31.644Z,100429.94
2022-10-23T19:13:55.832Z,100426.23
2022-10-23T19:20:04.737Z,100420.42
2022-10-23T19:26:04.900Z,100423.36
2022-10-23T19:32:30.396Z,100417.34
2022-10-23T19:38:54.718Z,100415.90
2022-10-23T19:45:04.497Z,100421.27
2022-10-23T19:51:31.281Z,100422.69
2022-10-23T19:57:28.914Z,100423.54
2022-10-23T20:04:04.578Z,100432.27
2022-10-23T20:10:34.750Z,100423.55
2022-10-23T20:16:43.925Z,100420.52
2022-10-23T20:23:08.212Z,100422.27
2022-10-23T20:29:32.536Z,100410.67
2022-10-23T20:35:56.822Z,100405.61
2022-10-23T20:42:21.045Z,100413.77
2022-10-23T20:48:39.715Z,100411.94
2022-10-23T20:55:05.445Z,100403.11
2022-10-23T21:01:42.246Z,100404.95
2022-10-23T21:14:38.868Z,100385.45
2022-10-23T21:28:05.830Z,100384.67
2022-10-23T21:34:31.894Z,100385.00
2022-10-23T21:54:35.411Z,100387.62
2022-10-23T22:00:48.066Z,100380.66
2022-10-23T22:07:11.699Z,100377.19
2022-10-23T22:13:38.945Z,100378.36
2022-10-23T22:20:03.442Z,100376.15
2022-10-23T22:26:27.737Z,100376.13
2022-10-23T22:32:52.753Z,100381.22
2022-10-23T22:39:17.799Z,100378.76
2022-10-23T22:45:43.981Z,100378.88
2022-10-23T22:52:14.096Z,100378.27
2022-10-23T22:58:40.465Z,100369.88
2022-10-23T23:04:58.472Z,100360.17
2022-10-23T23:11:22.687Z,100358.52
2022-10-23T23:17:47.219Z,100355.09
2022-10-23T23:24:18.505Z,100349.73
2022-10-23T23:37:21.596Z,100351.73
2022-10-23T23:43:46.609Z,100349.10
2022-10-23T23:50:12.860Z,100338.62
2022-10-23T23:56:38.331Z,100331.02
